Terminal Aerodrome Forecast
Issued by NWS

Home | Current Version | Previous Version | Graphics & Text | Print | Product List | Glossary On
Versions: 1 2 3 4 5 6 7 8 9 10 11 12 13 14 15 16 17
000
FTUS43 KBIS 040521
TAFDIK
TAF
KDIK 040521Z 0406/0506 12004KT P6SM SCT060 SCT180
     FM041400 15012KT P6SM BKN070
     FM041700 16015G21KT P6SM BKN070
     FM050200 14010KT P6SM BKN060=

USA.gov is the U.S. government's official web portal to all federal, state and local government web resources and services.